createdAt,value
2023-03-22T00:01:20.715Z,3.92
2023-03-22T00:03:49.703Z,5.03
2023-03-22T00:06:17.398Z,4.00
2023-03-22T00:08:45.450Z,4.55
2023-03-22T00:11:13.226Z,4.00
2023-03-22T00:13:43.078Z,4.53
2023-03-22T00:16:11.217Z,4.18
2023-03-22T00:18:38.356Z,3.80
2023-03-22T00:21:06.179Z,3.90
2023-03-22T00:23:33.205Z,4.78
2023-03-22T00:26:00.347Z,3.33
2023-03-22T00:28:27.471Z,3.83
2023-03-22T00:30:57.799Z,4.20
2023-03-22T00:33:28.413Z,2.85
2023-03-22T00:35:59.517Z,3.72
2023-03-22T00:41:13.088Z,4.53
2023-03-22T00:43:40.470Z,4.53
2023-03-22T00:46:08.085Z,4.05
2023-03-22T00:48:35.394Z,4.93
2023-03-22T00:51:02.647Z,4.75
2023-03-22T00:53:36.678Z,5.50
2023-03-22T00:56:05.704Z,12.50
2023-03-22T00:58:42.939Z,4.13
2023-03-22T01:01:14.087Z,4.75
2023-03-22T01:03:43.107Z,4.82
2023-03-22T01:06:12.802Z,4.80
2023-03-22T01:08:40.524Z,5.90
2023-03-22T01:11:10.352Z,5.10
2023-03-22T01:13:38.345Z,5.15
2023-03-22T01:16:07.157Z,4.65
2023-03-22T01:18:35.745Z,5.10
2023-03-22T01:21:03.081Z,5.35
2023-03-22T01:23:30.651Z,5.43
2023-03-22T01:25:59.062Z,4.38
2023-03-22T01:28:27.312Z,4.93
2023-03-22T01:30:55.468Z,5.07
2023-03-22T01:33:23.189Z,3.83
2023-03-22T01:35:51.704Z,4.30
2023-03-22T01:38:20.560Z,4.03
2023-03-22T01:40:55.294Z,4.85
2023-03-22T01:43:22.680Z,3.78
2023-03-22T01:45:51.838Z,4.88
2023-03-22T01:48:25.670Z,4.28
2023-03-22T01:51:18.366Z,4.55
2023-03-22T01:54:09.607Z,4.57
2023-03-22T01:56:41.135Z,4.75
2023-03-22T01:59:14.608Z,6.40
2023-03-22T02:02:04.828Z,5.45
2023-03-22T02:04:39.214Z,3.85
2023-03-22T02:07:15.849Z,4.43
2023-03-22T02:09:47.193Z,5.70
2023-03-22T02:12:18.100Z,5.47
2023-03-22T02:15:17.135Z,6.22
2023-03-22T02:18:35.843Z,5.60
2023-03-22T02:21:27.597Z,5.47
2023-03-22T02:24:51.944Z,5.55
2023-03-22T02:27:56.218Z,5.15
2023-03-22T02:30:28.920Z,6.00
2023-03-22T02:33:13.713Z,5.43
2023-03-22T02:35:46.529Z,6.00
2023-03-22T02:38:42.964Z,5.88
2023-03-22T02:41:23.674Z,5.63
2023-03-22T02:44:07.070Z,6.53
2023-03-22T02:47:02.524Z,6.22
2023-03-22T02:49:47.631Z,6.50
2023-03-22T02:52:26.890Z,6.22
2023-03-22T02:55:16.635Z,6.72
2023-03-22T02:57:54.630Z,6.18
2023-03-22T03:00:21.764Z,5.95
2023-03-22T03:02:53.833Z,6.93
2023-03-22T03:05:22.955Z,6.50
2023-03-22T03:07:58.656Z,6.75
2023-03-22T03:10:27.086Z,3.60
2023-03-22T03:12:54.118Z,4.55
2023-03-22T03:15:23.755Z,7.00
2023-03-22T03:18:09.599Z,5.40
2023-03-22T03:20:44.150Z,4.88
2023-03-22T03:23:56.522Z,5.70
2023-03-22T03:26:35.281Z,5.15
2023-03-22T03:29:16.933Z,4.40
2023-03-22T03:32:03.664Z,5.05
2023-03-22T03:34:35.384Z,5.55
2023-03-22T03:37:17.526Z,4.72
2023-03-22T03:39:52.873Z,4.72
2023-03-22T03:42:23.215Z,4.13
2023-03-22T03:44:50.279Z,3.20
2023-03-22T03:47:18.747Z,3.80
2023-03-22T03:49:46.357Z,3.67
2023-03-22T03:52:13.582Z,3.50
2023-03-22T03:54:41.199Z,4.28
2023-03-22T03:57:13.613Z,4.43
2023-03-22T03:59:40.784Z,3.92
2023-03-22T04:02:17.313Z,4.03
2023-03-22T04:04:44.927Z,3.95
2023-03-22T04:07:12.377Z,4.43
2023-03-22T04:09:40.501Z,4.43
2023-03-22T04:12:23.940Z,3.97
2023-03-22T04:15:10.873Z,3.70
2023-03-22T04:17:39.650Z,4.18
2023-03-22T04:20:10.969Z,3.83
2023-03-22T04:22:39.155Z,4.05
2023-03-22T04:25:14.403Z,3.88
2023-03-22T04:27:51.534Z,3.75
2023-03-22T04:30:20.459Z,4.55
2023-03-22T04:33:07.063Z,3.33
2023-03-22T04:36:02.502Z,1.95
2023-03-22T04:38:35.539Z,3.72
2023-03-22T04:41:02.621Z,3.63
2023-03-22T04:43:40.841Z,3.30
2023-03-22T04:46:14.416Z,2.33
2023-03-22T04:48:48.297Z,1.73
2023-03-22T04:51:16.696Z,3.60
2023-03-22T04:53:56.482Z,3.10
2023-03-22T04:56:23.807Z,1.85
2023-03-22T04:58:52.202Z,2.60
2023-03-22T05:01:19.270Z,1.52
2023-03-22T05:03:51.683Z,2.20
2023-03-22T05:06:22.429Z,3.20
2023-03-22T05:09:02.789Z,3.58
2023-03-22T05:11:30.179Z,3.10
2023-03-22T05:14:11.228Z,3.13
2023-03-22T05:16:42.804Z,3.72
2023-03-22T05:19:14.322Z,3.90
2023-03-22T05:21:45.514Z,3.55
2023-03-22T05:24:12.632Z,2.78
2023-03-22T05:26:44.079Z,2.20
2023-03-22T05:29:12.891Z,2.92
2023-03-22T05:31:57.362Z,1.80
2023-03-22T05:34:24.567Z,2.05
2023-03-22T05:36:51.783Z,2.53
2023-03-22T05:39:30.154Z,3.90
2023-03-22T05:41:58.574Z,4.22
2023-03-22T05:44:25.889Z,2.88
2023-03-22T05:47:07.531Z,4.40
2023-03-22T05:52:06.229Z,3.55
2023-03-22T05:54:56.073Z,2.63
2023-03-22T05:57:23.192Z,2.80
2023-03-22T05:59:53.959Z,2.50
2023-03-22T06:02:27.162Z,4.03
2023-03-22T06:04:54.603Z,3.88
2023-03-22T06:07:21.760Z,3.72
2023-03-22T06:09:53.683Z,3.67
2023-03-22T06:15:05.856Z,2.78
2023-03-22T06:17:45.802Z,3.33
2023-03-22T06:20:16.415Z,4.18
2023-03-22T06:22:52.590Z,4.30
2023-03-22T06:25:20.005Z,4.15
2023-03-22T06:27:49.086Z,3.75
2023-03-22T06:30:16.615Z,4.60
2023-03-22T06:33:04.415Z,4.63
2023-03-22T06:35:34.743Z,3.85
2023-03-22T06:38:03.084Z,5.30
2023-03-22T06:40:30.294Z,5.80
2023-03-22T06:42:57.699Z,5.43
2023-03-22T06:45:25.293Z,5.32
2023-03-22T06:47:52.447Z,4.07
2023-03-22T06:50:44.152Z,2.88
2023-03-22T06:53:19.295Z,4.78
2023-03-22T06:55:46.439Z,4.47
2023-03-22T06:58:22.959Z,5.70
2023-03-22T07:00:50.016Z,5.82
2023-03-22T07:03:19.417Z,5.53
2023-03-22T07:05:52.311Z,5.18
2023-03-22T07:08:19.590Z,3.58
2023-03-22T07:10:51.506Z,6.40
2023-03-22T07:13:21.475Z,3.67
2023-03-22T07:15:50.174Z,6.15
2023-03-22T07:18:34.620Z,6.97
2023-03-22T07:21:02.011Z,6.40
2023-03-22T07:23:29.977Z,7.03
2023-03-22T07:26:03.290Z,7.20
2023-03-22T07:28:33.721Z,5.63
2023-03-22T07:31:04.928Z,4.20
2023-03-22T07:33:42.438Z,4.45
2023-03-22T07:36:10.547Z,4.63
2023-03-22T07:38:37.797Z,4.55
2023-03-22T07:41:09.207Z,4.47
2023-03-22T07:44:17.624Z,3.50
2023-03-22T07:47:00.820Z,2.25
2023-03-22T07:49:36.849Z,3.65
2023-03-22T07:52:08.237Z,2.97
2023-03-22T07:54:35.651Z,2.92
2023-03-22T07:57:05.560Z,3.05
2023-03-22T07:59:39.991Z,1.83
2023-03-22T08:02:11.188Z,3.40
2023-03-22T08:04:44.565Z,2.80
2023-03-22T08:07:21.446Z,3.67
2023-03-22T08:09:49.605Z,3.78
2023-03-22T08:12:17.176Z,2.10
2023-03-22T08:14:50.610Z,3.50
2023-03-22T08:17:22.003Z,2.80
2023-03-22T08:19:50.139Z,3.60
2023-03-22T08:22:25.980Z,3.45
2023-03-22T08:25:11.856Z,2.90
2023-03-22T08:27:40.045Z,3.53
2023-03-22T08:30:07.999Z,3.72
2023-03-22T08:32:35.124Z,3.75
2023-03-22T08:35:05.485Z,3.92
2023-03-22T08:37:32.883Z,3.42
2023-03-22T08:40:02.223Z,3.22
2023-03-22T08:42:38.810Z,2.95
2023-03-22T08:45:06.864Z,2.60
2023-03-22T08:47:36.393Z,2.95
2023-03-22T08:50:05.103Z,2.80
2023-03-22T08:52:46.321Z,1.20
2023-03-22T08:55:23.375Z,2.70
2023-03-22T08:58:10.323Z,2.83
2023-03-22T09:00:56.145Z,2.47
2023-03-22T09:03:32.669Z,2.42
2023-03-22T09:05:59.757Z,2.30
2023-03-22T09:08:31.376Z,2.50
2023-03-22T09:11:10.016Z,2.40
2023-03-22T09:13:37.881Z,1.92
2023-03-22T09:16:09.148Z,2.30
2023-03-22T09:18:38.393Z,2.15
2023-03-22T09:21:11.512Z,2.03
2023-03-22T09:24:05.136Z,1.98
2023-03-22T09:26:43.698Z,2.55
2023-03-22T09:29:11.045Z,1.25
2023-03-22T09:31:40.963Z,2.35
2023-03-22T09:34:16.386Z,2.22
2023-03-22T09:36:43.618Z,2.53
2023-03-22T09:39:18.190Z,2.75
2023-03-22T09:41:54.251Z,2.55
2023-03-22T09:44:31.457Z,2.55
2023-03-22T09:47:00.600Z,3.10
2023-03-22T09:49:50.541Z,2.90
2023-03-22T09:52:20.003Z,2.25
2023-03-22T09:54:47.830Z,2.47
2023-03-22T09:57:37.479Z,3.00
2023-03-22T10:00:17.020Z,3.40
2023-03-22T10:03:09.013Z,2.78
2023-03-22T10:05:49.780Z,2.78
2023-03-22T10:08:38.585Z,2.67
2023-03-22T10:11:24.483Z,2.95
2023-03-22T10:14:04.497Z,2.83
2023-03-22T10:16:35.518Z,2.63
2023-03-22T10:19:21.562Z,2.40
2023-03-22T10:21:51.492Z,2.47
2023-03-22T10:24:30.480Z,2.67
2023-03-22T10:26:57.594Z,2.28
2023-03-22T10:29:38.551Z,2.40
2023-03-22T10:32:17.092Z,2.80
2023-03-22T10:34:44.969Z,2.65
2023-03-22T10:37:32.196Z,2.40
2023-03-22T10:40:06.266Z,2.78
2023-03-22T10:42:37.363Z,3.20
2023-03-22T10:45:08.936Z,2.92
2023-03-22T10:47:48.881Z,2.80
2023-03-22T10:50:28.769Z,2.78
2023-03-22T10:53:04.694Z,2.42
2023-03-22T10:55:31.882Z,1.95
2023-03-22T10:58:21.379Z,2.80
2023-03-22T11:00:52.096Z,2.92
2023-03-22T11:03:39.150Z,3.55
2023-03-22T11:06:27.277Z,3.00
2023-03-22T11:08:58.452Z,2.90
2023-03-22T11:11:36.603Z,2.38
2023-03-22T11:14:32.553Z,2.85
2023-03-22T11:17:08.054Z,2.88
2023-03-22T11:19:40.962Z,2.88
2023-03-22T11:22:36.605Z,2.92
2023-03-22T11:25:13.935Z,2.53
2023-03-22T11:27:53.204Z,3.28
2023-03-22T11:30:22.100Z,3.28
2023-03-22T11:32:59.372Z,3.65
2023-03-22T11:35:29.495Z,3.08
2023-03-22T11:37:57.602Z,2.30
2023-03-22T11:40:28.584Z,2.75
2023-03-22T11:43:17.055Z,2.45
2023-03-22T11:45:45.424Z,2.42
2023-03-22T11:48:21.400Z,2.40
2023-03-22T11:50:52.390Z,2.45
2023-03-22T11:53:27.769Z,2.47
2023-03-22T11:55:57.923Z,2.70
2023-03-22T11:58:43.501Z,2.70
2023-03-22T12:01:18.445Z,2.78
2023-03-22T12:03:51.442Z,2.58
2023-03-22T12:06:24.716Z,2.75
2023-03-22T12:09:03.663Z,2.75
2023-03-22T12:11:41.599Z,3.63
2023-03-22T12:14:19.396Z,3.95
2023-03-22T12:16:53.818Z,4.18
2023-03-22T12:19:27.269Z,3.13
2023-03-22T12:21:55.523Z,3.40
2023-03-22T12:24:32.135Z,3.90
2023-03-22T12:27:08.360Z,4.00
2023-03-22T12:29:38.331Z,4.00
2023-03-22T12:32:15.988Z,4.00
2023-03-22T12:34:50.868Z,3.72
2023-03-22T12:37:28.367Z,3.55
2023-03-22T12:40:06.256Z,3.10
2023-03-22T12:42:50.789Z,2.78
2023-03-22T12:45:24.914Z,2.58
2023-03-22T12:47:59.723Z,3.20
2023-03-22T12:50:36.032Z,2.90
2023-03-22T12:53:04.656Z,3.40
2023-03-22T12:55:38.455Z,3.17
2023-03-22T12:58:07.907Z,3.15
2023-03-22T13:00:48.513Z,3.40
2023-03-22T13:03:15.656Z,5.78
2023-03-22T13:05:45.942Z,3.55
2023-03-22T13:08:13.565Z,3.13
2023-03-22T13:10:50.639Z,2.90
2023-03-22T13:13:34.258Z,3.42
2023-03-22T13:16:11.103Z,3.13
2023-03-22T13:18:38.454Z,3.20
2023-03-22T13:21:19.354Z,2.72
2023-03-22T13:26:23.874Z,2.40
2023-03-22T13:28:59.530Z,2.13
2023-03-22T13:31:53.907Z,2.10
2023-03-22T13:34:33.865Z,2.05
2023-03-22T13:37:03.724Z,2.13
2023-03-22T13:39:36.148Z,2.00
2023-03-22T13:42:08.881Z,2.40
2023-03-22T13:44:39.849Z,2.38
2023-03-22T13:47:46.018Z,2.60
2023-03-22T13:50:22.193Z,2.47
2023-03-22T13:53:15.651Z,2.40
2023-03-22T13:55:52.215Z,2.70
2023-03-22T13:58:33.138Z,2.72
2023-03-22T14:01:01.143Z,2.70
2023-03-22T14:03:35.414Z,2.50
2023-03-22T14:06:10.962Z,3.05
2023-03-22T14:08:40.824Z,2.50
2023-03-22T14:11:20.402Z,2.30
2023-03-22T14:13:51.509Z,2.70
2023-03-22T14:16:23.176Z,2.45
2023-03-22T14:18:51.232Z,2.25
2023-03-22T14:21:48.635Z,2.40
